Time;durP1;ratioP1;P1;durP2;ratioP2;P2;SDS_P1;SDS_P2;PMS_P1;PMS_P2;Temp;Humidity;BMP_temperature;BMP_pressure;BME280_temperature;BME280_humidity;BME280_pressure;Samples;Min_cycle;Max_cycle;Signal;HPM_P1;HPM_P2
2022/10/07 00:01:32;;;;;;;16.20;9.60;;;;;;;9.39;77.37;101432.03;5003682;28;20815;-74
2022/10/07 00:03:57;;;;;;;16.00;9.02;;;;;;;10.66;76.49;101659.31;5005305;28;20544;-74
2022/10/07 00:06:23;;;;;;;13.90;7.85;;;;;;;10.60;76.96;101641.69;4999664;28;20042;-73
2022/10/07 00:08:51;;;;;;;15.85;7.57;;;;;;;10.66;76.67;101647.06;4999702;28;20038;-74
2022/10/07 00:11:22;;;;;;;17.63;9.25;;;;;;;10.86;77.61;101676.31;5004345;28;20046;-72
2022/10/07 00:13:52;;;;;;;12.93;7.22;;;;;;;11.50;76.87;101772.97;5007553;28;20549;-73
2022/10/07 00:16:23;;;;;;;20.48;7.38;;;;;;;11.03;76.86;101700.28;5004521;28;20045;-73
2022/10/07 00:18:50;;;;;;;27.52;8.18;;;;;;;10.74;76.22;101644.59;4988968;28;20050;-73
2022/10/07 00:21:17;;;;;;;17.83;8.82;;;;;;;10.97;76.60;101680.03;4992536;28;20151;-73
2022/10/07 00:23:44;;;;;;;10.70;6.65;;;;;;;10.95;76.34;101655.47;5022393;28;20037;-73
2022/10/07 00:26:16;;;;;;;12.80;8.02;;;;;;;11.64;76.72;101773.22;5027991;28;20091;-73
2022/10/07 00:28:42;;;;;;;12.98;7.13;;;;;;;11.55;76.35;101771.31;5014537;28;20037;-74
2022/10/07 00:31:13;;;;;;;13.75;8.10;;;;;;;11.45;76.75;101761.47;5028511;28;20099;-73
2022/10/07 00:33:40;;;;;;;17.27;6.75;;;;;;;10.93;79.18;101659.84;5026542;28;20068;-73
2022/10/07 00:36:22;;;;;;;18.60;7.47;;;;;;;11.67;79.62;101791.69;5027043;28;20037;-73
2022/10/07 00:38:52;;;;;;;11.57;6.88;;;;;;;11.68;77.89;101782.91;5009627;28;20064;-74
2022/10/07 00:41:24;;;;;;;13.95;8.23;;;;;;;11.01;76.83;101653.84;5024231;28;20513;-75
2022/10/07 00:43:50;;;;;;;13.60;6.57;;;;;;;11.66;76.39;101775.03;4991461;28;20452;-74
2022/10/07 00:46:28;;;;;;;10.30;6.85;;;;;;;11.65;76.47;101783.75;5026426;28;20422;-74
2022/10/07 00:49:02;;;;;;;12.25;6.72;;;;;;;11.69;75.99;101784.69;5027949;28;20768;-74
2022/10/07 00:51:31;;;;;;;13.52;5.47;;;;;;;11.53;76.69;101781.78;4995946;28;20042;-72
2022/10/07 00:53:57;;;;;;;9.10;6.18;;;;;;;10.78;77.54;101647.28;5020717;28;20128;-72
2022/10/07 00:56:25;;;;;;;8.77;6.10;;;;;;;11.33;77.52;101741.09;5026667;28;20506;-73
2022/10/07 00:58:52;;;;;;;13.05;6.75;;;;;;;10.97;77.25;101664.28;5026328;28;20029;-72
2022/10/07 01:01:19;;;;;;;13.05;6.50;;;;;;;10.94;77.01;101658.09;5022565;28;20040;-73
2022/10/07 01:03:47;;;;;;;8.75;5.15;;;;;;;10.95;77.14;101655.47;5026976;28;20183;-75
2022/10/07 01:06:12;;;;;;;12.90;5.63;;;;;;;11.55;77.19;101764.31;5027173;28;20038;-72
2022/10/07 01:08:39;;;;;;;9.00;6.03;;;;;;;10.91;77.42;101642.25;5024380;28;20042;-74
2022/10/07 01:11:25;;;;;;;9.45;5.72;;;;;;;11.26;77.16;101712.94;5009314;28;20484;-73
2022/10/07 01:14:10;;;;;;;15.65;5.93;;;;;;;11.60;76.99;101774.91;5007528;28;20117;-73
2022/10/07 01:16:46;;;;;;;13.80;5.15;;;;;;;11.54;77.22;101774.78;5016460;28;20018;-73
2022/10/07 01:19:24;;;;;;;11.25;6.40;;;;;;;11.52;77.57;101776.50;5019375;28;20061;-73
2022/10/07 01:22:01;;;;;;;10.93;6.38;;;;;;;11.53;77.61;101779.16;5027160;28;20054;-73
2022/10/07 01:24:51;;;;;;;12.27;6.18;;;;;;;11.54;78.17;101765.19;5026736;28;20072;-73
2022/10/07 01:27:20;;;;;;;10.10;5.65;;;;;;;10.73;77.54;101612.19;5028298;28;20073;-72
2022/10/07 01:30:03;;;;;;;14.07;5.75;;;;;;;11.52;77.55;101763.34;5032103;28;20053;-73
2022/10/07 01:32:44;;;;;;;10.93;6.10;;;;;;;11.25;78.15;101754.13;5025031;28;20072;-73
2022/10/07 01:35:20;;;;;;;7.78;4.90;;;;;;;10.69;77.84;101659.38;5015125;28;20051;-73
2022/10/07 01:37:49;;;;;;;10.02;5.43;;;;;;;11.26;77.95;101749.72;5025271;28;20033;-74
2022/10/07 01:40:20;;;;;;;11.88;5.03;;;;;;;10.76;78.28;101654.25;5026809;28;20033;-73
2022/10/07 01:42:47;;;;;;;9.40;5.30;;;;;;;11.24;78.21;101736.59;5023116;28;20034;-74
2022/10/07 01:45:20;;;;;;;11.88;5.95;;;;;;;11.47;77.92;101758.03;5029582;28;20049;-74
2022/10/07 01:47:49;;;;;;;9.13;5.75;;;;;;;11.25;78.81;101776.88;5026196;28;20135;-73
2022/10/07 01:50:17;;;;;;;11.35;5.50;;;;;;;10.99;78.80;101701.09;5019810;28;20076;-73
2022/10/07 01:53:14;;;;;;;14.02;5.88;;;;;;;11.34;79.53;101770.06;5031237;28;20364;-72
2022/10/07 01:55:54;;;;;;;7.18;5.30;;;;;;;11.48;79.41;101787.84;5026919;28;20094;-72
2022/10/07 01:58:43;;;;;;;13.65;5.85;;;;;;;11.61;78.43;101777.56;5026599;28;20103;-74
2022/10/07 02:01:21;;;;;;;16.95;6.20;;;;;;;11.51;79.98;101778.25;5027653;28;20048;-74
2022/10/07 02:04:08;;;;;;;9.30;5.75;;;;;;;11.46;79.52;101793.03;5025956;28;20048;-73
2022/10/07 02:07:02;;;;;;;15.10;5.80;;;;;;;11.38;80.95;101771.00;5025803;28;20073;-74
2022/10/07 02:09:57;;;;;;;9.13;5.38;;;;;;;11.34;82.64;101763.91;5026372;28;20045;-74
2022/10/07 02:12:26;;;;;;;10.60;6.07;;;;;;;10.93;84.80;101770.16;5005476;28;20111;-73
2022/10/07 02:15:15;;;;;;;11.27;6.65;;;;;;;11.03;85.92;101765.97;5016697;28;20139;-73
2022/10/07 02:17:47;;;;;;;14.57;6.13;;;;;;;10.87;86.18;101767.38;5005278;28;20037;-73
2022/10/07 02:20:16;;;;;;;14.45;6.63;;;;;;;10.82;86.95;101755.03;5016721;28;20065;-73
2022/10/07 02:22:43;;;;;;;18.60;8.05;;;;;;;10.53;86.21;101703.66;5009415;28;20508;-73
2022/10/07 02:25:13;;;;;;;13.45;6.80;;;;;;;10.96;86.44;101764.94;5026517;28;20034;-73
2022/10/07 02:27:41;;;;;;;12.82;7.18;;;;;;;10.76;85.70;101725.13;5018515;28;20591;-74
2022/10/07 02:30:19;;;;;;;10.85;6.00;;;;;;;10.85;86.92;101747.19;5011892;28;20405;-74
2022/10/07 02:32:49;;;;;;;21.92;7.18;;;;;;;10.68;87.64;101724.13;5028486;28;20056;-73
2022/10/07 02:35:22;;;;;;;9.60;5.97;;;;;;;10.77;87.84;101750.56;5025671;28;20553;-73
2022/10/07 02:37:53;;;;;;;16.20;8.10;;;;;;;10.65;87.40;101734.56;5021974;28;20036;-73
2022/10/07 02:40:20;;;;;;;11.80;7.07;;;;;;;10.37;87.42;101669.19;5030081;28;20041;-73
2022/10/07 02:43:07;;;;;;;13.55;6.93;;;;;;;10.79;88.29;101737.44;5029528;28;20042;-75
2022/10/07 02:45:44;;;;;;;10.23;6.82;;;;;;;11.00;87.63;101763.25;5025655;28;20072;-75
2022/10/07 02:48:26;;;;;;;13.88;6.22;;;;;;;10.26;86.87;101642.72;5025049;28;20045;-73
2022/10/07 02:50:59;;;;;;;10.25;6.43;;;;;;;11.03;86.41;101783.44;5016038;28;20042;-73
2022/10/07 02:53:27;;;;;;;12.07;6.90;;;;;;;10.99;85.82;101767.63;5027467;28;20041;-72
2022/10/07 02:55:55;;;;;;;11.82;6.63;;;;;;;11.04;86.30;101772.97;5029149;28;20087;-73
2022/10/07 02:58:25;;;;;;;17.50;6.53;;;;;;;10.30;85.97;101657.69;5030011;28;20084;-73
2022/10/07 03:00:56;;;;;;;9.68;5.63;;;;;;;11.05;85.32;101763.34;5028855;28;20048;-73
2022/10/07 03:03:23;;;;;;;11.05;6.50;;;;;;;10.52;85.56;101685.28;5027169;28;20841;-74
2022/10/07 03:05:50;;;;;;;7.60;5.30;;;;;;;10.33;85.25;101645.53;5006295;28;20053;-72
2022/10/07 03:08:16;;;;;;;12.70;6.45;;;;;;;10.40;85.71;101670.16;5023895;28;20517;-73
2022/10/07 03:10:41;;;;;;;10.32;5.80;;;;;;;10.96;84.64;101761.44;5028939;28;20116;-73
2022/10/07 03:13:07;;;;;;;9.63;6.18;;;;;;;9.88;84.13;101565.00;5021771;28;20490;-73
2022/10/07 03:15:36;;;;;;;10.30;6.45;;;;;;;11.22;83.39;101787.34;5028991;28;20049;-73
2022/10/07 03:18:04;;;;;;;13.05;5.97;;;;;;;10.98;85.54;101754.47;5027393;28;20099;-72
2022/10/07 03:20:31;;;;;;;12.18;6.28;;;;;;;10.23;87.66;101646.16;5025797;28;20041;-72
2022/10/07 03:22:58;;;;;;;11.75;5.85;;;;;;;10.18;87.50;101634.66;5030483;28;20523;-73
2022/10/07 03:25:24;;;;;;;16.13;7.07;;;;;;;10.91;87.24;101763.06;5022651;28;20029;-76
2022/10/07 03:27:49;;;;;;;8.07;5.25;;;;;;;10.86;86.71;101739.34;5017058;28;20749;-74
2022/10/07 03:30:15;;;;;;;11.13;5.78;;;;;;;10.95;87.28;101763.16;5028276;28;20046;-73
2022/10/07 03:32:40;;;;;;;9.68;5.70;;;;;;;11.08;87.19;101773.94;5020905;28;20089;-73
2022/10/07 03:35:06;;;;;;;18.05;6.82;;;;;;;10.95;86.05;101744.78;5024114;28;20037;-73
2022/10/07 03:37:32;;;;;;;11.18;6.10;;;;;;;10.36;86.74;101665.69;5023969;28;20109;-74
2022/10/07 03:39:57;;;;;;;17.65;5.68;;;;;;;11.09;86.72;101776.56;5027682;28;20141;-73
2022/10/07 03:42:23;;;;;;;12.52;7.05;;;;;;;10.28;86.94;101644.56;5011420;28;20048;-74
2022/10/07 03:44:48;;;;;;;13.05;6.13;;;;;;;11.11;86.78;101789.75;5016213;28;20042;-73
2022/10/07 03:47:20;;;;;;;11.73;7.22;;;;;;;11.10;86.77;101785.34;4994397;28;20049;-74
2022/10/07 03:49:46;;;;;;;11.48;6.85;;;;;;;10.99;87.31;101774.63;5023033;28;20038;-74
2022/10/07 03:52:11;;;;;;;17.05;8.15;;;;;;;11.07;87.27;101783.53;5028664;28;20040;-72
2022/10/07 03:54:37;;;;;;;10.40;6.72;;;;;;;11.09;86.98;101789.69;5028582;28;20046;-75
2022/10/07 03:57:48;;;;;;;20.58;7.43;;;;;;;10.31;87.63;101678.72;5026984;28;20042;-73
2022/10/07 03:59:48;;;;;;;9.57;6.60;;;;;;;10.48;86.71;101697.44;5027048;28;20133;-72
2022/10/07 04:02:14;;;;;;;14.07;7.22;;;;;;;10.20;86.69;101655.69;5022893;28;20034;-73
2022/10/07 04:04:39;;;;;;;12.07;6.30;;;;;;;10.46;86.23;101693.00;4998795;28;20041;-73
2022/10/07 04:07:05;;;;;;;11.73;6.18;;;;;;;11.03;86.32;101792.22;5007981;28;20104;-73
2022/10/07 04:09:31;;;;;;;14.43;6.93;;;;;;;10.29;88.38;101664.69;5028170;28;20046;-73
2022/10/07 04:11:56;;;;;;;8.15;5.93;;;;;;;11.08;88.52;101803.72;5026561;28;20049;-73
2022/10/07 04:14:22;;;;;;;9.93;7.00;;;;;;;11.02;86.13;101803.56;5001423;28;20494;-73
2022/10/07 04:16:47;;;;;;;18.42;6.80;;;;;;;9.93;86.54;101664.72;5025772;28;20470;-73
2022/10/07 04:19:13;;;;;;;8.90;6.47;;;;;;;10.24;87.43;101718.75;5027819;28;20036;-74
2022/10/07 04:21:38;;;;;;;26.13;7.75;;;;;;;10.60;88.78;101803.53;5026698;28;20089;-73
2022/10/07 04:24:04;;;;;;;8.68;6.32;;;;;;;10.03;88.54;101692.91;5027058;28;20405;-72
2022/10/07 04:26:29;;;;;;;11.70;6.43;;;;;;;10.69;86.86;101799.38;5016937;28;20041;-74
2022/10/07 04:28:55;;;;;;;10.63;6.05;;;;;;;10.29;85.67;101709.28;5031970;28;20037;-73
2022/10/07 04:31:20;;;;;;;12.52;7.50;;;;;;;10.91;87.51;101787.59;5036448;28;20017;-73
2022/10/07 04:33:46;;;;;;;9.30;6.80;;;;;;;10.14;86.53;101652.09;5026517;28;20773;-74
2022/10/07 04:36:11;;;;;;;14.65;8.60;;;;;;;10.93;88.76;101801.66;5004605;28;20053;-72
2022/10/07 04:38:37;;;;;;;15.88;8.43;;;;;;;10.37;90.24;101708.56;5019912;28;20033;-73
2022/10/07 04:41:05;;;;;;;14.00;8.07;;;;;;;10.85;90.62;101784.84;5025196;28;20438;-75
2022/10/07 04:43:32;;;;;;;11.00;7.55;;;;;;;10.30;89.96;101679.59;5027149;28;20041;-75
2022/10/07 04:46:07;;;;;;;16.42;8.02;;;;;;;10.73;90.11;101764.47;5027073;28;20531;-73
2022/10/07 04:48:43;;;;;;;16.02;7.50;;;;;;;10.13;90.66;101673.91;5015834;28;20128;-73
2022/10/07 04:51:09;;;;;;;20.40;8.02;;;;;;;10.96;90.65;101806.09;5025572;28;20041;-73
2022/10/07 04:53:42;;;;;;;17.65;9.07;;;;;;;10.12;90.25;101669.53;5004705;28;20058;-75
2022/10/07 04:56:08;;;;;;;23.40;10.63;;;;;;;11.04;89.49;101806.22;5026661;28;20489;-75
2022/10/07 04:58:35;;;;;;;19.13;9.93;;;;;;;10.30;88.95;101682.22;5026639;28;20029;-74
2022/10/07 05:01:07;;;;;;;20.73;11.23;;;;;;;10.78;88.30;101793.44;5026632;28;20108;-74
2022/10/07 05:03:37;;;;;;;31.95;12.05;;;;;;;10.21;89.56;101670.56;5026465;28;20115;-74
2022/10/07 05:06:03;;;;;;;15.82;9.10;;;;;;;11.04;89.02;101830.75;5025594;28;20045;-73
2022/10/07 05:08:30;;;;;;;17.83;10.63;;;;;;;11.07;88.57;101815.03;5020403;28;20061;-75
2022/10/07 05:10:57;;;;;;;31.67;9.18;;;;;;;10.37;88.59;101719.94;5019556;28;20029;-75
2022/10/07 05:13:24;;;;;;;16.35;8.70;;;;;;;10.57;87.20;101713.38;5025271;28;20037;-75
2022/10/07 05:15:54;;;;;;;11.30;7.43;;;;;;;11.17;87.55;101814.41;5024663;28;20041;-73
2022/10/07 05:18:21;;;;;;;16.50;9.23;;;;;;;11.30;87.71;101851.44;5018466;28;20058;-74
2022/10/07 05:20:48;;;;;;;20.75;9.13;;;;;;;11.31;85.86;101830.44;5023948;28;20053;-74
2022/10/07 05:23:15;;;;;;;25.85;13.02;;;;;;;10.75;85.31;101733.00;5020936;28;20632;-75
2022/10/07 05:25:42;;;;;;;25.40;10.10;;;;;;;10.57;86.86;101705.50;5009063;28;20095;-73
2022/10/07 05:28:13;;;;;;;19.25;8.00;;;;;;;11.13;84.33;101802.06;5015107;28;20046;-74
2022/10/07 05:30:39;;;;;;;17.80;8.70;;;;;;;10.59;86.25;101702.91;5021970;28;20119;-74
2022/10/07 05:33:05;;;;;;;19.67;7.85;;;;;;;11.29;83.83;101821.63;5015678;28;20041;-73
2022/10/07 05:35:32;;;;;;;12.23;7.18;;;;;;;11.57;83.77;101854.59;5019745;28;20050;-72
2022/10/07 05:37:59;;;;;;;16.00;7.32;;;;;;;11.60;83.65;101852.03;5025772;28;20048;-73
2022/10/07 05:40:25;;;;;;;12.63;7.15;;;;;;;11.12;83.20;101739.88;5019809;28;20037;-73
2022/10/07 05:42:51;;;;;;;10.85;5.97;;;;;;;11.60;82.90;101838.88;5016785;28;20053;-73
2022/10/07 05:45:17;;;;;;;23.38;14.55;;;;;;;10.76;83.44;101698.88;5018613;28;20050;-73
2022/10/07 05:47:42;;;;;;;21.02;11.25;;;;;;;11.27;80.88;101752.41;5016943;28;20045;-75
2022/10/07 05:50:09;;;;;;;31.75;15.02;;;;;;;11.61;82.60;101803.84;5002264;28;20069;-74
2022/10/07 05:52:35;;;;;;;20.88;9.25;;;;;;;11.87;81.30;101852.50;5020538;28;20094;-73
2022/10/07 05:55:01;;;;;;;71.07;30.35;;;;;;;11.28;80.67;101727.00;5017516;28;21052;-73
2022/10/07 05:57:26;;;;;;;44.90;20.48;;;;;;;12.17;80.98;101853.06;5021606;28;20524;-74
2022/10/07 05:59:52;;;;;;;22.35;11.43;;;;;;;11.42;79.38;101720.25;5008049;28;20052;-73
2022/10/07 06:02:18;;;;;;;21.02;9.23;;;;;;;11.61;78.09;101724.06;5017662;28;20196;-74
2022/10/07 06:04:46;;;;;;;18.63;7.20;;;;;;;12.16;77.31;101814.47;5022520;28;20256;-72
2022/10/07 06:07:12;;;;;;;11.75;6.47;;;;;;;12.40;76.37;101858.69;5023890;28;20643;-72
2022/10/07 06:15:08;;;;;;;24.05;6.55;;;;;;;12.41;76.80;101818.38;5027553;28;20133;-75
2022/10/07 06:17:41;;;;;;;16.23;5.93;;;;;;;12.13;77.82;101768.81;5005840;28;20894;-73
2022/10/07 06:20:07;;;;;;;12.77;6.80;;;;;;;11.99;78.19;101726.50;5025973;28;20057;-74
2022/10/07 06:22:32;;;;;;;17.52;8.23;;;;;;;12.36;78.41;101770.03;5017594;28;20074;-72
2022/10/07 06:25:01;;;;;;;15.73;8.57;;;;;;;12.76;77.06;101836.44;5010533;28;20037;-74
2022/10/07 06:27:27;;;;;;;27.27;9.93;;;;;;;12.89;76.27;101855.91;5008749;28;20141;-73
2022/10/07 06:29:52;;;;;;;24.33;10.70;;;;;;;13.08;77.67;101862.31;5004988;28;20504;-71
2022/10/07 06:32:18;;;;;;;21.50;8.80;;;;;;;13.14;75.95;101850.97;5005785;28;20037;-74
2022/10/07 06:34:44;;;;;;;17.42;7.72;;;;;;;12.49;76.15;101731.59;5010853;28;20148;-73
2022/10/07 06:37:09;;;;;;;14.48;7.18;;;;;;;12.52;75.77;101736.00;5009979;28;20045;-74
2022/10/07 06:39:34;;;;;;;17.75;6.32;;;;;;;13.04;74.15;101828.88;5006946;28;20453;-73
2022/10/07 06:42:00;;;;;;;49.22;12.48;;;;;;;13.04;73.70;101821.88;5003758;28;20046;-73
2022/10/07 06:44:27;;;;;;;16.38;6.43;;;;;;;13.27;73.37;101847.59;4986888;28;20034;-74
2022/10/07 06:46:53;;;;;;;38.00;11.82;;;;;;;13.44;73.71;101859.28;5008875;28;20057;-75
2022/10/07 06:49:18;;;;;;;17.85;8.63;;;;;;;12.88;74.91;101740.88;5006951;28;20811;-73
2022/10/07 06:51:45;;;;;;;20.80;7.25;;;;;;;13.69;73.75;101863.06;5004834;28;20049;-73
2022/10/07 06:54:11;;;;;;;29.55;8.55;;;;;;;13.72;73.44;101864.88;4993603;28;20441;-75
2022/10/07 06:56:37;;;;;;;28.58;7.50;;;;;;;13.29;73.90;101780.00;4988003;28;20042;-73
2022/10/07 06:59:03;;;;;;;20.23;5.75;;;;;;;13.85;73.39;101861.47;5006582;28;20540;-74
2022/10/07 07:01:29;;;;;;;16.42;8.30;;;;;;;13.44;73.68;101769.63;4990058;28;20029;-74
2022/10/07 07:03:55;;;;;;;18.50;6.80;;;;;;;13.42;72.52;101745.00;5002155;28;20406;-75
2022/10/07 07:06:20;;;;;;;13.02;6.90;;;;;;;14.17;72.99;101873.22;5003148;28;20068;-77
2022/10/07 07:08:48;;;;;;;17.88;6.47;;;;;;;14.28;72.21;101872.44;4991426;28;20102;-72
2022/10/07 07:13:58;;;;;;;11.10;5.93;;;;;;;13.81;72.49;101735.66;5002954;28;20048;-74
2022/10/07 07:16:24;;;;;;;28.27;7.72;;;;;;;14.53;72.85;101852.34;5003471;28;20035;-74
2022/10/07 07:18:52;;;;;;;19.65;7.32;;;;;;;14.72;73.17;101871.88;5011281;28;20046;-74
2022/10/07 07:21:17;;;;;;;14.25;6.22;;;;;;;14.13;72.43;101741.19;5003036;28;20038;-76
2022/10/07 07:23:43;;;;;;;11.15;7.38;;;;;;;14.84;73.82;101864.91;5033994;28;20044;-75
2022/10/07 07:26:08;;;;;;;15.82;6.57;;;;;;;15.06;72.80;101869.44;5028688;28;20814;-75
2022/10/07 07:28:33;;;;;;;15.10;6.03;;;;;;;14.49;73.22;101744.03;5024249;28;20164;-75
2022/10/07 07:30:59;;;;;;;20.23;5.93;;;;;;;15.32;72.40;101863.38;5025386;28;20042;-73
2022/10/07 07:33:24;;;;;;;12.63;6.88;;;;;;;15.25;72.64;101838.66;5024893;28;20038;-75
2022/10/07 07:35:50;;;;;;;15.73;6.53;;;;;;;15.46;71.97;101845.78;5020276;28;20049;-76
2022/10/07 07:38:15;;;;;;;13.68;6.80;;;;;;;15.34;72.71;101835.19;5030542;28;20045;-75
2022/10/07 07:40:41;;;;;;;12.50;6.15;;;;;;;15.07;72.60;101768.09;5024522;28;20101;-72
2022/10/07 07:43:07;;;;;;;13.63;6.38;;;;;;;15.75;72.72;101866.19;4995169;28;20121;-75
2022/10/07 07:45:35;;;;;;;10.20;5.68;;;;;;;15.71;72.70;101825.59;5014105;28;20076;-76
2022/10/07 07:48:01;;;;;;;12.38;6.80;;;;;;;15.51;72.02;101772.59;5023687;28;21134;-75
2022/10/07 07:50:26;;;;;;;17.00;5.78;;;;;;;16.00;72.56;101854.75;5019047;28;20120;-74
2022/10/07 07:52:55;;;;;;;18.98;6.05;;;;;;;16.18;72.15;101853.88;5027332;28;20030;-74
2022/10/07 07:55:21;;;;;;;13.27;5.88;;;;;;;15.67;72.81;101730.31;5024503;28;20489;-75
2022/10/07 07:57:48;;;;;;;20.63;7.05;;;;;;;16.43;72.33;101857.38;5003019;28;20061;-73
2022/10/07 08:00:15;;;;;;;14.93;6.70;;;;;;;16.61;72.50;101850.31;5014762;28;20050;-75
2022/10/07 08:02:41;;;;;;;29.73;7.65;;;;;;;16.58;72.97;101842.38;5020978;28;20076;-73
2022/10/07 08:05:07;;;;;;;14.98;7.10;;;;;;;16.78;72.78;101840.53;5009854;28;20051;-75
2022/10/07 08:07:34;;;;;;;15.55;6.63;;;;;;;16.90;71.46;101822.84;5019488;28;20038;-76
2022/10/07 08:09:59;;;;;;;13.55;7.90;;;;;;;16.34;70.93;101709.06;5027470;28;20041;-76
2022/10/07 08:12:25;;;;;;;17.58;8.05;;;;;;;16.41;71.94;101752.28;5018027;28;20411;-76
2022/10/07 08:14:51;;;;;;;13.77;6.82;;;;;;;16.46;71.37;101729.34;5019075;28;20033;-75
2022/10/07 08:17:16;;;;;;;15.15;7.15;;;;;;;17.29;71.53;101849.22;5008072;28;20168;-75
2022/10/07 08:19:42;;;;;;;19.35;5.97;;;;;;;17.40;71.37;101843.00;5017986;28;20072;-74
2022/10/07 08:22:07;;;;;;;20.70;6.15;;;;;;;17.35;71.26;101818.22;5023527;28;22039;-74
2022/10/07 08:24:33;;;;;;;19.52;7.40;;;;;;;16.94;70.73;101734.47;4997571;28;20053;-72
2022/10/07 08:26:58;;;;;;;11.43;6.95;;;;;;;17.68;70.39;101823.34;5020695;28;20383;-75
2022/10/07 08:29:24;;;;;;;13.45;7.30;;;;;;;17.69;70.47;101818.91;5024956;28;20997;-76
2022/10/07 08:31:49;;;;;;;26.55;6.78;;;;;;;17.49;70.14;101789.88;5020858;28;20041;-72
2022/10/07 08:34:16;;;;;;;7.72;5.32;;;;;;;17.76;70.52;101828.59;5031054;28;20747;-75
2022/10/07 08:36:46;;;;;;;13.30;5.72;;;;;;;17.09;70.15;101703.44;5010693;28;20556;-74
2022/10/07 08:39:11;;;;;;;12.48;5.63;;;;;;;17.44;69.65;101734.16;5026103;28;20135;-74
2022/10/07 08:41:40;;;;;;;8.50;5.15;;;;;;;18.08;69.08;101824.88;5023643;28;20485;-75
2022/10/07 08:44:11;;;;;;;9.95;5.68;;;;;;;17.36;68.58;101727.16;5019066;28;20661;-75
2022/10/07 08:46:40;;;;;;;8.60;5.65;;;;;;;17.40;69.16;101711.19;5023710;28;20029;-74
2022/10/07 08:49:14;;;;;;;9.40;4.72;;;;;;;18.09;68.94;101819.50;5015528;28;20061;-74
2022/10/07 08:51:49;;;;;;;10.45;4.75;;;;;;;17.69;68.51;101726.88;5016672;28;20485;-75
2022/10/07 08:54:18;;;;;;;10.70;5.47;;;;;;;17.68;67.94;101705.66;5017738;28;20064;-76
2022/10/07 08:56:47;;;;;;;9.38;5.55;;;;;;;18.50;67.34;101817.38;5013162;28;20121;-75
2022/10/07 08:59:26;;;;;;;10.70;5.55;;;;;;;17.81;67.69;101688.75;5018554;28;20041;-75
2022/10/07 09:01:58;;;;;;;17.63;5.95;;;;;;;18.09;67.47;101710.59;5025245;28;20080;-73
2022/10/07 09:04:42;;;;;;;11.55;5.15;;;;;;;18.73;67.25;101804.72;5027015;28;20061;-73
2022/10/07 09:07:46;;;;;;;8.20;5.50;;;;;;;19.00;66.04;101801.78;5024391;28;20120;-76
2022/10/07 09:10:36;;;;;;;17.17;5.32;;;;;;;18.74;65.21;101720.50;5012817;28;20053;-74
2022/10/07 09:13:09;;;;;;;9.30;5.18;;;;;;;19.06;65.23;101802.59;5014400;28;20057;-74
2022/10/07 09:15:51;;;;;;;24.48;5.53;;;;;;;19.33;64.92;101788.00;5014782;28;20050;-74
2022/10/07 09:18:26;;;;;;;10.85;5.47;;;;;;;19.51;63.77;101794.84;5015050;28;20062;-74
2022/10/07 09:20:54;;;;;;;17.77;5.30;;;;;;;19.19;63.29;101750.06;5018393;28;20528;-75
2022/10/07 09:23:32;;;;;;;5.65;4.45;;;;;;;19.44;63.16;101785.19;5024261;28;20424;-76
2022/10/07 09:25:58;;;;;;;19.80;5.32;;;;;;;19.47;63.07;101778.94;5026390;28;20120;-74
2022/10/07 09:28:32;;;;;;;15.18;5.10;;;;;;;19.76;63.46;101760.78;5026528;28;20087;-74
2022/10/07 09:30:59;;;;;;;9.68;5.55;;;;;;;19.92;61.63;101757.81;4997349;28;20137;-76
2022/10/07 09:33:28;;;;;;;16.35;5.43;;;;;;;19.28;61.52;101648.78;4999684;28;20049;-74
2022/10/07 09:35:57;;;;;;;8.88;4.97;;;;;;;19.90;59.30;101771.19;5003620;28;20100;-74
2022/10/07 09:38:47;;;;;;;5.25;3.90;;;;;;;19.90;58.47;101773.88;4999553;28;20038;-75
2022/10/07 09:41:15;;;;;;;11.70;4.15;;;;;;;20.05;57.96;101758.50;5024257;28;20038;-75
2022/10/07 09:44:03;;;;;;;19.80;5.60;;;;;;;20.01;58.02;101753.22;5008596;28;20041;-75
2022/10/07 09:46:39;;;;;;;17.33;3.88;;;;;;;19.96;57.50;101756.88;5021873;28;20064;-75
2022/10/07 09:49:06;;;;;;;8.20;4.55;;;;;;;19.87;56.37;101741.06;5009929;28;20050;-74
2022/10/07 09:51:34;;;;;;;8.18;3.75;;;;;;;19.61;56.37;101713.03;5014845;28;20137;-76
2022/10/07 09:54:05;;;;;;;9.73;4.22;;;;;;;20.02;56.46;101749.66;5015551;28;20131;-75
2022/10/07 09:56:42;;;;;;;16.15;3.95;;;;;;;20.18;57.28;101738.69;4997764;28;20542;-75
2022/10/07 09:59:28;;;;;;;10.13;4.10;;;;;;;20.11;55.88;101726.41;5000813;28;20049;-73
2022/10/07 10:02:02;;;;;;;9.50;3.75;;;;;;;19.44;56.43;101616.63;5022426;28;20033;-72
2022/10/07 10:04:34;;;;;;;14.68;5.22;;;;;;;19.68;56.07;101632.16;5002314;28;20045;-75
2022/10/07 10:07:15;;;;;;;12.88;3.63;;;;;;;20.23;56.89;101702.22;5016366;28;20053;-76
2022/10/07 10:09:54;;;;;;;8.75;4.18;;;;;;;20.25;55.57;101697.69;5019961;28;20401;-77
2022/10/07 10:12:22;;;;;;;13.68;5.00;;;;;;;20.30;55.73;101694.94;5009023;28;20050;-77
2022/10/07 10:14:49;;;;;;;10.98;4.53;;;;;;;20.16;55.35;101729.88;5003035;28;20045;-74
2022/10/07 10:17:20;;;;;;;9.07;4.03;;;;;;;20.10;54.80;101709.53;5019672;28;20046;-77
2022/10/07 10:19:46;;;;;;;5.05;2.92;;;;;;;19.51;55.01;101603.16;5030992;28;20025;-76
2022/10/07 10:22:34;;;;;;;10.50;3.95;;;;;;;20.25;55.12;101689.69;5031444;28;20049;-76
2022/10/07 10:27:54;;;;;;;10.30;4.20;;;;;;;20.58;54.55;101687.28;5023113;28;20132;-74
2022/10/07 10:30:20;;;;;;;5.88;3.47;;;;;;;20.53;53.01;101681.16;5015876;28;20052;-76
2022/10/07 10:33:03;;;;;;;6.45;3.97;;;;;;;20.61;53.38;101693.44;5014954;28;20065;-83
2022/10/07 10:35:31;;;;;;;9.30;4.35;;;;;;;21.14;52.19;101694.94;5023384;28;20057;-82
2022/10/07 10:38:02;;;;;;;20.52;5.93;;;;;;;21.17;52.04;101678.88;5019656;28;20093;-72
2022/10/07 10:40:38;;;;;;;15.15;3.58;;;;;;;21.24;52.24;101684.03;5019171;28;20108;-73
2022/10/07 10:43:23;;;;;;;13.77;3.28;;;;;;;21.15;50.97;101649.53;5014115;28;20069;-74
2022/10/07 10:46:01;;;;;;;8.10;3.50;;;;;;;20.98;50.89;101673.09;5019462;28;20061;-73
2022/10/07 10:48:33;;;;;;;7.75;4.00;;;;;;;21.11;51.93;101660.34;5021775;28;20045;-75
2022/10/07 10:51:28;;;;;;;13.07;4.35;;;;;;;21.15;51.51;101660.22;5016143;28;20038;-78
2022/10/07 10:54:12;;;;;;;6.65;3.83;;;;;;;21.18;50.81;101657.47;5018937;28;20133;-76
2022/10/07 10:57:04;;;;;;;6.78;4.35;;;;;;;21.28;51.18;101664.34;4995187;28;20397;-77
2022/10/07 10:59:40;;;;;;;12.65;3.95;;;;;;;21.19;50.19;101669.00;5005879;28;20512;-76
2022/10/07 11:02:43;;;;;;;6.53;3.13;;;;;;;20.75;50.25;101657.59;5026178;28;20078;-76
2022/10/07 11:05:37;;;;;;;5.50;3.42;;;;;;;20.72;50.70;101636.31;5014637;28;20975;-76
2022/10/07 11:08:16;;;;;;;12.57;5.03;;;;;;;21.26;49.93;101655.50;5027298;28;20045;-76
2022/10/07 11:11:01;;;;;;;11.82;5.05;;;;;;;20.81;50.05;101543.63;5021572;28;20029;-75
2022/10/07 11:13:55;;;;;;;9.32;3.72;;;;;;;21.29;50.01;101641.19;4995845;28;20053;-73
2022/10/07 11:16:29;;;;;;;9.05;3.28;;;;;;;20.97;49.29;101644.63;5026275;28;20216;-77
2022/10/07 11:18:59;;;;;;;17.42;4.82;;;;;;;21.10;50.07;101639.91;5034002;28;20445;-75
2022/10/07 11:21:33;;;;;;;15.45;4.82;;;;;;;20.52;49.87;101546.06;5017168;28;20049;-74
2022/10/07 11:24:13;;;;;;;6.95;3.60;;;;;;;21.01;49.75;101631.19;5028191;28;20093;-74
2022/10/07 11:26:46;;;;;;;7.82;3.67;;;;;;;20.98;48.52;101631.28;5012525;28;20080;-75
2022/10/07 11:29:29;;;;;;;6.18;3.40;;;;;;;20.38;49.21;101519.72;5018396;28;20061;-75
2022/10/07 11:32:02;;;;;;;7.55;3.72;;;;;;;20.24;50.10;101549.34;5020414;28;20760;-75
2022/10/07 11:34:43;;;;;;;10.65;4.63;;;;;;;20.58;50.05;101607.28;5036704;28;20025;-77
2022/10/07 11:37:19;;;;;;;8.85;4.38;;;;;;;20.68;50.78;101627.53;5014979;28;20049;-78
2022/10/07 11:39:45;;;;;;;6.93;4.80;;;;;;;20.80;50.72;101621.03;5019141;28;20057;-77
2022/10/07 11:42:20;;;;;;;12.57;5.55;;;;;;;20.79;50.05;101608.56;5017304;28;20554;-75
2022/10/07 11:44:55;;;;;;;15.23;5.57;;;;;;;20.55;50.09;101562.84;5026996;28;20111;-74
2022/10/07 11:47:25;;;;;;;7.55;5.25;;;;;;;20.82;49.62;101590.72;5025404;28;20539;-74